createdAt,value
2018-05-19T00:01:56.272Z,8.30
2018-05-19T00:04:22.362Z,7.43
2018-05-19T00:06:48.403Z,8.30
2018-05-19T00:09:15.187Z,8.67
2018-05-19T00:11:41.273Z,7.70
2018-05-19T00:14:07.361Z,7.57
2018-05-19T00:16:33.447Z,8.20
2018-05-19T00:18:59.492Z,8.67
2018-05-19T00:21:25.540Z,8.17
2018-05-19T00:23:52.340Z,8.03
2018-05-19T00:26:18.384Z,8.10
2018-05-19T00:28:44.439Z,9.37
2018-05-19T00:31:10.476Z,8.37
2018-05-19T00:33:36.505Z,8.73
2018-05-19T00:36:02.540Z,9.13
2018-05-19T00:38:28.572Z,8.87
2018-05-19T00:40:54.708Z,8.53
2018-05-19T00:43:20.781Z,9.00
2018-05-19T00:45:46.865Z,8.33
2018-05-19T00:48:12.942Z,8.67
2018-05-19T00:50:39.784Z,8.60
2018-05-19T00:53:05.849Z,9.07
2018-05-19T00:55:31.899Z,10.17
2018-05-19T00:57:57.941Z,8.90
2018-05-19T01:00:24.008Z,9.00
2018-05-19T01:02:50.048Z,8.70
2018-05-19T01:05:16.089Z,9.23
2018-05-19T01:07:42.137Z,8.77
2018-05-19T01:10:08.181Z,10.37
2018-05-19T01:12:34.219Z,10.57
2018-05-19T01:15:00.254Z,9.13
2018-05-19T01:17:26.328Z,9.60
2018-05-19T01:19:52.356Z,9.90
2018-05-19T01:22:18.396Z,9.40
2018-05-19T01:24:44.473Z,8.87
2018-05-19T01:27:10.528Z,9.50
2018-05-19T01:29:36.569Z,10.30
2018-05-19T01:32:02.591Z,10.20
2018-05-19T01:34:28.645Z,8.40
2018-05-19T01:36:55.422Z,10.43
2018-05-19T01:39:21.467Z,9.10
2018-05-19T01:41:47.537Z,9.67
2018-05-19T01:44:13.564Z,10.83
2018-05-19T01:46:39.607Z,9.93
2018-05-19T01:49:06.384Z,9.70
2018-05-19T01:51:32.471Z,9.83
2018-05-19T01:53:58.512Z,9.10
2018-05-19T01:56:24.552Z,9.17
2018-05-19T01:58:50.596Z,10.00
2018-05-19T02:01:16.632Z,9.57
2018-05-19T02:03:42.660Z,10.73
2018-05-19T02:06:08.734Z,9.10
2018-05-19T02:08:34.739Z,9.53
2018-05-19T02:11:00.798Z,9.90
2018-05-19T02:13:26.844Z,8.53
2018-05-19T02:15:52.883Z,11.10
2018-05-19T02:18:18.928Z,10.07
2018-05-19T02:20:45.140Z,10.23
2018-05-19T02:23:11.080Z,10.83
2018-05-19T02:25:37.121Z,10.43
2018-05-19T02:28:03.184Z,10.80
2018-05-19T02:30:30.143Z,10.30
2018-05-19T02:32:56.924Z,9.97
2018-05-19T02:35:22.948Z,9.90
2018-05-19T02:37:49.076Z,10.83
2018-05-19T02:40:15.112Z,9.93
2018-05-19T02:42:41.132Z,11.37
2018-05-19T02:45:07.161Z,10.30
2018-05-19T02:47:33.203Z,10.47
2018-05-19T02:49:59.313Z,11.17
2018-05-19T02:52:25.331Z,12.90
2018-05-19T02:54:51.446Z,10.73
2018-05-19T02:57:17.384Z,11.10
2018-05-19T02:59:43.407Z,9.87
2018-05-19T03:02:09.458Z,11.65
2018-05-19T03:04:35.486Z,11.50
2018-05-19T03:07:01.505Z,11.10
2018-05-19T03:09:28.251Z,11.48
2018-05-19T03:11:55.013Z,10.25
2018-05-19T03:14:21.076Z,12.30
2018-05-19T03:16:47.094Z,10.97
2018-05-19T03:19:13.116Z,11.40
2018-05-19T03:21:39.868Z,10.90
2018-05-19T03:24:05.892Z,12.37
2018-05-19T03:26:32.715Z,11.60
2018-05-19T03:28:59.495Z,12.00
2018-05-19T03:31:25.539Z,11.20
2018-05-19T03:33:51.579Z,11.57
2018-05-19T03:36:18.372Z,10.23
2018-05-19T03:38:44.418Z,11.40
2018-05-19T03:41:10.472Z,11.75
2018-05-19T03:43:36.552Z,11.60
2018-05-19T03:46:03.376Z,12.10
2018-05-19T03:48:30.122Z,12.07
2018-05-19T03:50:56.159Z,11.75
2018-05-19T03:53:22.191Z,13.03
2018-05-19T03:55:49.799Z,11.60
2018-05-19T03:58:42.577Z,11.13
2018-05-19T04:01:21.153Z,12.03
2018-05-19T04:03:47.191Z,12.00
2018-05-19T04:06:13.248Z,12.63
2018-05-19T04:08:40.051Z,11.55
2018-05-19T04:11:06.087Z,12.43
2018-05-19T04:13:32.132Z,11.50
2018-05-19T04:15:58.179Z,12.77
2018-05-19T04:18:24.230Z,12.50
2018-05-19T04:20:50.286Z,12.70
2018-05-19T04:23:17.084Z,12.23
2018-05-19T04:25:43.128Z,13.83
2018-05-19T04:28:09.229Z,12.27
2018-05-19T04:30:35.325Z,12.70
2018-05-19T04:33:01.340Z,14.90
2018-05-19T04:35:27.355Z,12.33
2018-05-19T04:37:53.381Z,12.63
2018-05-19T04:40:19.397Z,13.60
2018-05-19T04:42:46.159Z,12.70
2018-05-19T04:45:12.899Z,12.80
2018-05-19T04:47:38.967Z,12.57
2018-05-19T04:50:04.985Z,13.07
2018-05-19T04:52:31.745Z,12.93
2018-05-19T04:54:57.747Z,13.87
2018-05-19T04:57:23.794Z,13.77
2018-05-19T04:59:49.859Z,13.10
2018-05-19T05:02:16.024Z,12.20
2018-05-19T05:04:42.032Z,14.10
2018-05-19T05:07:08.063Z,14.60
2018-05-19T05:09:34.076Z,12.60
2018-05-19T05:12:00.087Z,13.70
2018-05-19T05:14:26.129Z,13.20
2018-05-19T05:16:52.164Z,13.50
2018-05-19T05:19:18.269Z,13.30
2018-05-19T05:21:44.284Z,12.70
2018-05-19T05:24:10.356Z,13.60
2018-05-19T05:26:36.442Z,13.57
2018-05-19T05:29:03.199Z,12.90
2018-05-19T05:31:30.220Z,15.03
2018-05-19T05:33:56.241Z,13.27
2018-05-19T05:36:22.279Z,13.50
2018-05-19T05:38:48.284Z,13.57
2018-05-19T05:41:14.292Z,13.80
2018-05-19T05:43:41.052Z,13.17
2018-05-19T05:46:07.815Z,12.27
2018-05-19T05:48:33.840Z,12.20
2018-05-19T05:51:00.596Z,13.90
2018-05-19T05:53:27.341Z,12.80
2018-05-19T05:55:54.100Z,12.93
2018-05-19T06:01:18.016Z,15.40
2018-05-19T06:03:44.788Z,16.77
2018-05-19T06:06:10.883Z,15.43
2018-05-19T06:08:37.584Z,13.43
2018-05-19T06:11:04.407Z,14.90
2018-05-19T06:13:30.503Z,14.23
2018-05-19T06:15:56.610Z,14.23
2018-05-19T06:18:22.667Z,16.33
2018-05-19T06:20:48.699Z,13.60
2018-05-19T06:23:14.715Z,14.03
2018-05-19T06:25:41.501Z,13.63
2018-05-19T06:28:07.540Z,13.23
2018-05-19T06:30:33.563Z,12.60
2018-05-19T06:32:59.580Z,14.47
2018-05-19T06:35:25.685Z,14.73
2018-05-19T06:37:52.468Z,15.87
2018-05-19T06:40:18.504Z,16.20
2018-05-19T06:42:44.554Z,15.53
2018-05-19T06:45:10.744Z,14.63
2018-05-19T06:47:36.755Z,14.20
2018-05-19T06:50:02.779Z,14.17
2018-05-19T06:52:28.818Z,14.50
2018-05-19T06:54:54.843Z,12.93
2018-05-19T06:57:20.867Z,15.20
2018-05-19T06:59:46.930Z,14.77
2018-05-19T07:02:12.952Z,13.40
2018-05-19T07:04:38.984Z,15.33
2018-05-19T07:07:05.020Z,14.20
2018-05-19T07:09:31.049Z,13.90
2018-05-19T07:11:57.063Z,15.30
2018-05-19T07:14:23.856Z,13.70
2018-05-19T07:16:49.905Z,15.07
2018-05-19T07:19:15.936Z,15.10
2018-05-19T07:21:41.963Z,15.37
2018-05-19T07:24:08.036Z,15.50
2018-05-19T07:26:34.082Z,16.90
2018-05-19T07:29:00.957Z,16.47
2018-05-19T07:31:26.991Z,16.73
2018-05-19T07:33:54.104Z,16.27
2018-05-19T07:36:20.148Z,16.53
2018-05-19T07:38:46.176Z,16.30
2018-05-19T07:41:12.955Z,16.93
2018-05-19T07:43:39.351Z,17.47
2018-05-19T07:46:09.900Z,19.27
2018-05-19T07:48:35.915Z,18.90
2018-05-19T07:51:01.944Z,18.27
2018-05-19T07:53:27.975Z,20.10
2018-05-19T07:55:56.516Z,20.93
2018-05-19T07:58:23.326Z,19.97
2018-05-19T08:00:50.120Z,23.00
2018-05-19T08:03:17.200Z,20.57
2018-05-19T08:05:43.215Z,21.43
2018-05-19T08:08:09.236Z,22.20
2018-05-19T08:10:35.267Z,23.70
2018-05-19T08:13:01.300Z,24.30
2018-05-19T08:15:27.327Z,24.33
2018-05-19T08:17:53.372Z,24.30
2018-05-19T08:20:19.476Z,24.60
2018-05-19T08:22:45.546Z,25.77
2018-05-19T08:25:11.576Z,27.73
2018-05-19T08:27:37.648Z,26.00
2018-05-19T08:30:03.695Z,25.20
2018-05-19T08:32:29.857Z,26.77
2018-05-19T08:34:56.056Z,27.33
2018-05-19T08:37:23.667Z,30.03
2018-05-19T08:39:49.768Z,33.23
2018-05-19T08:42:16.152Z,35.63
2018-05-19T08:44:42.462Z,37.13
2018-05-19T08:47:08.672Z,34.57
2018-05-19T08:49:35.344Z,37.10
2018-05-19T08:52:01.616Z,39.50
2018-05-19T08:54:27.833Z,36.17
2018-05-19T08:56:54.095Z,37.40
2018-05-19T08:59:20.368Z,34.33
2018-05-19T09:01:47.464Z,38.17
2018-05-19T09:04:13.742Z,38.63
2018-05-19T09:06:40.836Z,37.10
2018-05-19T09:09:07.012Z,35.93
2018-05-19T09:11:33.228Z,36.87
2018-05-19T09:14:00.175Z,37.40
2018-05-19T09:16:26.404Z,35.83
2018-05-19T09:18:57.216Z,31.50
2018-05-19T09:21:23.424Z,30.43
2018-05-19T09:23:49.672Z,29.03
2018-05-19T09:26:17.006Z,28.70
2018-05-19T09:28:43.337Z,30.70
2018-05-19T09:31:09.548Z,32.63
2018-05-19T09:33:35.736Z,32.03
2018-05-19T09:36:01.948Z,31.47
2018-05-19T09:38:28.912Z,31.57
2018-05-19T09:40:55.988Z,30.93
2018-05-19T09:46:20.084Z,33.67
2018-05-19T09:48:46.344Z,32.40
2018-05-19T09:51:12.656Z,32.87
2018-05-19T09:53:38.943Z,30.63
2018-05-19T09:56:05.538Z,32.87
2018-05-19T09:58:31.735Z,30.60
2018-05-19T10:00:58.028Z,29.63
2018-05-19T10:03:24.292Z,31.17
2018-05-19T10:05:50.581Z,32.80
2018-05-19T10:08:16.846Z,30.23
2018-05-19T10:10:43.084Z,32.23
2018-05-19T10:13:09.473Z,31.00
2018-05-19T10:15:36.455Z,30.13
2018-05-19T10:18:02.767Z,30.17
2018-05-19T10:20:29.920Z,27.90
2018-05-19T10:22:56.195Z,28.20
2018-05-19T10:25:22.370Z,27.13
2018-05-19T10:27:48.604Z,27.97
2018-05-19T10:30:15.160Z,27.83
2018-05-19T10:32:41.424Z,30.87
2018-05-19T10:35:07.847Z,28.67
2018-05-19T10:37:34.078Z,28.97
2018-05-19T10:40:00.307Z,27.07
2018-05-19T10:42:26.514Z,26.13
2018-05-19T10:44:52.801Z,25.20
2018-05-19T10:47:19.036Z,24.97
2018-05-19T10:49:45.256Z,25.47
2018-05-19T10:52:11.507Z,25.97
2018-05-19T10:54:37.892Z,25.20
2018-05-19T10:57:04.941Z,25.67
2018-05-19T10:59:31.180Z,26.00
2018-05-19T11:01:57.460Z,25.37
2018-05-19T11:04:23.668Z,23.73
2018-05-19T11:06:49.990Z,23.03
2018-05-19T11:09:16.274Z,24.30
2018-05-19T11:11:42.505Z,23.87
2018-05-19T11:14:08.703Z,23.27
2018-05-19T11:16:36.610Z,23.10
2018-05-19T11:19:02.869Z,23.43
2018-05-19T11:21:30.586Z,22.00
2018-05-19T11:23:56.876Z,22.43
2018-05-19T11:26:23.132Z,24.47
2018-05-19T11:28:49.366Z,22.80
2018-05-19T11:31:16.099Z,21.80
2018-05-19T11:33:44.420Z,21.80
2018-05-19T11:36:10.652Z,19.93
2018-05-19T11:38:36.854Z,18.37
2018-05-19T11:41:03.867Z,18.57
2018-05-19T11:43:30.179Z,18.60
2018-05-19T11:45:56.396Z,18.83
2018-05-19T11:48:23.350Z,22.30
2018-05-19T11:50:49.603Z,24.87
2018-05-19T11:53:15.845Z,22.67
2018-05-19T11:55:42.109Z,21.73
2018-05-19T11:58:08.368Z,22.17
2018-05-19T12:00:34.567Z,22.07
2018-05-19T12:03:00.774Z,19.50
2018-05-19T12:05:27.008Z,20.70
2018-05-19T12:07:54.022Z,22.93
2018-05-19T12:10:20.220Z,22.70
2018-05-19T12:12:46.537Z,22.80
2018-05-19T12:15:12.992Z,23.60
2018-05-19T12:17:39.967Z,22.47
2018-05-19T12:20:06.214Z,23.40
2018-05-19T12:22:33.681Z,21.40
2018-05-19T12:25:00.112Z,21.17
2018-05-19T12:27:26.324Z,21.53
2018-05-19T12:29:52.547Z,22.47
2018-05-19T12:32:18.784Z,20.73
2018-05-19T12:34:45.023Z,22.17
2018-05-19T12:37:13.636Z,20.43
2018-05-19T12:39:39.884Z,22.53
2018-05-19T12:42:06.180Z,22.23
2018-05-19T12:44:32.388Z,20.10
2018-05-19T12:46:58.692Z,21.20
2018-05-19T12:49:25.725Z,20.13
2018-05-19T12:51:52.581Z,19.67
2018-05-19T12:54:21.306Z,20.10
2018-05-19T12:56:47.529Z,20.30
2018-05-19T12:59:13.791Z,21.70
2018-05-19T13:01:40.052Z,20.40
2018-05-19T13:04:06.374Z,23.20
2018-05-19T13:06:32.580Z,22.50
2018-05-19T13:08:58.832Z,21.00
2018-05-19T13:11:27.568Z,20.63
2018-05-19T13:13:54.545Z,20.73
2018-05-19T13:16:20.809Z,21.33
2018-05-19T13:18:47.087Z,20.10
2018-05-19T13:21:14.111Z,19.80
2018-05-19T13:23:40.356Z,20.83
2018-05-19T13:26:09.285Z,19.63
2018-05-19T13:28:37.873Z,19.37
2018-05-19T13:31:04.075Z,16.97
2018-05-19T13:33:30.473Z,19.20
2018-05-19T13:35:56.679Z,18.50
2018-05-19T13:38:22.904Z,17.80
2018-05-19T13:40:49.138Z,18.80
2018-05-19T13:43:15.417Z,19.20
2018-05-19T13:45:44.010Z,19.50
2018-05-19T13:48:10.212Z,18.50
2018-05-19T13:50:36.468Z,18.80
2018-05-19T13:53:02.716Z,17.73
2018-05-19T13:55:28.972Z,17.03
2018-05-19T13:57:55.229Z,17.20
2018-05-19T14:00:21.443Z,16.67
2018-05-19T14:02:47.705Z,16.43
2018-05-19T14:05:13.996Z,17.60
2018-05-19T14:07:40.703Z,16.40
2018-05-19T14:10:06.943Z,19.13
2018-05-19T14:12:33.156Z,17.90
2018-05-19T14:14:59.391Z,16.33
2018-05-19T14:17:25.636Z,17.00
2018-05-19T14:19:51.887Z,18.17
2018-05-19T14:22:18.208Z,17.97
2018-05-19T14:24:44.475Z,18.03
2018-05-19T14:27:10.680Z,17.40
2018-05-19T14:29:37.685Z,15.43
2018-05-19T14:32:03.938Z,15.97
2018-05-19T14:34:30.340Z,15.33
2018-05-19T14:36:56.546Z,15.67
2018-05-19T14:39:22.764Z,15.07
2018-05-19T14:41:49.008Z,14.10
2018-05-19T14:44:15.228Z,15.40
2018-05-19T14:46:41.464Z,15.40
2018-05-19T14:49:07.699Z,15.27
2018-05-19T14:51:33.901Z,14.20
2018-05-19T14:54:00.883Z,15.50
2018-05-19T14:56:27.108Z,14.53
2018-05-19T14:58:53.288Z,15.70
2018-05-19T15:01:19.775Z,15.20
2018-05-19T15:03:46.743Z,15.60
2018-05-19T15:06:13.716Z,14.47
2018-05-19T15:08:40.697Z,14.63
2018-05-19T15:11:06.927Z,15.67
2018-05-19T15:13:33.176Z,16.60
2018-05-19T15:15:59.376Z,15.33
2018-05-19T15:18:25.637Z,14.90
2018-05-19T15:20:51.857Z,15.20
2018-05-19T15:23:18.854Z,13.57
2018-05-19T15:25:45.076Z,13.50
2018-05-19T15:28:11.288Z,12.83
2018-05-19T15:30:37.525Z,11.73
2018-05-19T15:33:03.834Z,13.60
2018-05-19T15:35:31.312Z,13.53
2018-05-19T15:37:57.515Z,12.83
2018-05-19T15:40:24.508Z,13.60
2018-05-19T15:42:50.723Z,13.60
2018-05-19T15:45:17.705Z,12.80
2018-05-19T15:47:43.967Z,16.70
2018-05-19T15:50:10.172Z,14.63
2018-05-19T15:52:39.292Z,17.40
2018-05-19T15:55:06.845Z,15.70
2018-05-19T15:57:33.111Z,15.60
2018-05-19T15:59:59.337Z,15.93
2018-05-19T16:02:25.568Z,16.00
2018-05-19T16:04:52.570Z,16.57
2018-05-19T16:07:18.872Z,16.97
2018-05-19T16:09:45.128Z,16.70
2018-05-19T16:12:12.391Z,18.30
2018-05-19T16:14:43.000Z,15.67
2018-05-19T16:17:09.248Z,15.00
2018-05-19T16:19:35.491Z,14.90
2018-05-19T16:22:01.729Z,14.27
2018-05-19T16:24:27.960Z,14.07
2018-05-19T16:26:54.218Z,14.63
2018-05-19T16:29:20.452Z,17.23
2018-05-19T16:31:46.703Z,14.50
2018-05-19T16:34:13.021Z,15.07
2018-05-19T16:36:43.106Z,14.50
2018-05-19T16:39:09.394Z,14.20
2018-05-19T16:41:35.668Z,13.80
2018-05-19T16:44:01.866Z,16.50
2018-05-19T16:46:28.133Z,16.00
2018-05-19T16:48:54.394Z,14.83
2018-05-19T16:51:21.419Z,14.73
2018-05-19T16:53:50.775Z,16.77
2018-05-19T16:56:18.760Z,16.10
2018-05-19T16:58:44.996Z,15.77
2018-05-19T17:01:11.227Z,19.53
2018-05-19T17:03:38.227Z,15.87
2018-05-19T17:06:04.436Z,16.67
2018-05-19T17:11:02.138Z,17.20
2018-05-19T17:13:28.358Z,16.63
2018-05-19T17:15:54.643Z,16.17
2018-05-19T17:18:21.010Z,16.50
2018-05-19T17:20:47.382Z,16.87
2018-05-19T17:23:13.768Z,18.70
2018-05-19T17:25:39.977Z,19.23
2018-05-19T17:28:06.262Z,16.10
2018-05-19T17:30:32.459Z,16.47
2018-05-19T17:32:58.668Z,20.03
2018-05-19T17:35:24.929Z,17.77
2018-05-19T17:37:51.244Z,19.70
2018-05-19T17:40:19.670Z,19.23
2018-05-19T17:42:45.888Z,19.77
2018-05-19T17:45:12.204Z,18.37
2018-05-19T17:47:38.436Z,20.80
2018-05-19T17:50:05.537Z,19.07
2018-05-19T17:52:31.927Z,20.40
2018-05-19T17:55:00.320Z,20.53
2018-05-19T17:57:26.547Z,19.80
2018-05-19T17:59:52.840Z,22.27
2018-05-19T18:02:19.209Z,19.00
2018-05-19T18:04:45.440Z,20.83
2018-05-19T18:07:11.636Z,18.63
2018-05-19T18:09:37.909Z,21.00
2018-05-19T18:12:04.842Z,18.33
2018-05-19T18:14:30.908Z,18.53
2018-05-19T18:16:56.940Z,19.63
2018-05-19T18:19:24.442Z,20.50
2018-05-19T18:21:51.265Z,19.70
2018-05-19T18:24:19.697Z,18.90
2018-05-19T18:26:45.735Z,19.57
2018-05-19T18:29:11.782Z,20.33
2018-05-19T18:31:37.849Z,19.23
2018-05-19T18:34:03.877Z,22.40
2018-05-19T18:36:29.895Z,17.33
2018-05-19T18:38:56.868Z,19.07
2018-05-19T18:41:23.561Z,19.50
2018-05-19T18:43:49.608Z,18.90
2018-05-19T18:46:15.638Z,22.20
2018-05-19T18:48:41.831Z,18.00
2018-05-19T18:51:12.395Z,21.43
2018-05-19T18:53:38.411Z,23.90
2018-05-19T18:56:04.451Z,27.20
2018-05-19T18:58:30.707Z,20.17
2018-05-19T19:00:58.168Z,20.80
2018-05-19T19:03:24.342Z,19.37
2018-05-19T19:05:50.367Z,19.93
2018-05-19T19:08:16.475Z,18.37
2018-05-19T19:10:42.581Z,19.10
2018-05-19T19:13:09.374Z,19.73
2018-05-19T19:15:35.427Z,17.27
2018-05-19T19:18:02.449Z,18.07
2018-05-19T19:20:28.500Z,17.20
2018-05-19T19:22:54.553Z,18.13
2018-05-19T19:25:20.584Z,17.10
2018-05-19T19:27:46.616Z,17.53
2018-05-19T19:30:12.663Z,18.00
2018-05-19T19:32:38.756Z,18.17
2018-05-19T19:35:04.721Z,18.63
2018-05-19T19:37:30.904Z,17.37
2018-05-19T19:39:56.937Z,19.53
2018-05-19T19:42:22.993Z,18.70
2018-05-19T19:44:49.771Z,18.20
2018-05-19T19:47:15.863Z,18.23
2018-05-19T19:49:41.887Z,18.67
2018-05-19T19:52:08.020Z,18.83
2018-05-19T19:54:34.043Z,19.70
2018-05-19T19:57:00.100Z,18.43
2018-05-19T19:59:26.181Z,19.70
2018-05-19T20:01:52.288Z,18.63
2018-05-19T20:04:18.337Z,20.27
2018-05-19T20:06:45.109Z,20.03
2018-05-19T20:09:12.132Z,19.23
2018-05-19T20:11:38.171Z,18.70
2018-05-19T20:14:05.019Z,19.10
2018-05-19T20:16:31.084Z,19.10
2018-05-19T20:18:57.849Z,19.87
2018-05-19T20:21:24.616Z,18.80
2018-05-19T20:23:50.714Z,19.83
2018-05-19T20:26:16.768Z,18.53
2018-05-19T20:28:42.828Z,19.67
2018-05-19T20:31:08.944Z,19.67
2018-05-19T20:33:37.142Z,19.07
2018-05-19T20:36:03.240Z,19.10
2018-05-19T20:38:29.260Z,19.70
2018-05-19T20:40:56.117Z,20.50
2018-05-19T20:43:22.157Z,20.80
2018-05-19T20:45:48.210Z,20.10
2018-05-19T20:48:14.248Z,20.00
2018-05-19T20:50:40.347Z,19.17
2018-05-19T20:53:06.402Z,19.33
2018-05-19T20:55:32.488Z,19.97
2018-05-19T20:57:58.653Z,20.63
2018-05-19T21:00:24.832Z,18.90
2018-05-19T21:02:50.880Z,20.07
2018-05-19T21:05:16.964Z,22.37
2018-05-19T21:07:43.020Z,22.97
2018-05-19T21:10:09.056Z,25.30
2018-05-19T21:12:35.119Z,28.00
2018-05-19T21:15:01.191Z,33.60
2018-05-19T21:17:27.248Z,32.50
2018-05-19T21:19:53.329Z,34.20
2018-05-19T21:22:19.364Z,38.80
2018-05-19T21:24:45.518Z,38.23
2018-05-19T21:27:12.407Z,40.47
2018-05-19T21:29:38.803Z,38.43
2018-05-19T21:32:04.849Z,39.10
2018-05-19T21:34:30.976Z,41.73
2018-05-19T21:36:57.077Z,40.17
2018-05-19T21:39:23.129Z,40.70
2018-05-19T21:41:49.194Z,39.03
2018-05-19T21:44:15.345Z,38.80
2018-05-19T21:46:42.197Z,36.10
2018-05-19T21:49:09.088Z,35.63
2018-05-19T21:51:35.124Z,36.50
2018-05-19T21:54:01.152Z,37.23
2018-05-19T21:56:27.342Z,34.47
2018-05-19T21:58:53.403Z,34.87
2018-05-19T22:01:20.514Z,34.83
2018-05-19T22:03:46.578Z,33.37
2018-05-19T22:06:12.612Z,35.27
2018-05-19T22:08:38.648Z,35.17
2018-05-19T22:11:04.722Z,34.93
2018-05-19T22:13:31.512Z,36.17
2018-05-19T22:15:57.564Z,32.97
2018-05-19T22:18:23.593Z,33.50
2018-05-19T22:20:49.634Z,33.83
2018-05-19T22:23:15.743Z,30.87
2018-05-19T22:25:41.776Z,32.50
2018-05-19T22:28:07.811Z,30.03
2018-05-19T22:30:34.712Z,29.80
2018-05-19T22:33:00.768Z,31.77
2018-05-19T22:35:27.544Z,28.70
2018-05-19T22:37:53.581Z,26.73
2018-05-19T22:40:19.650Z,29.03
2018-05-19T22:42:45.692Z,27.77
2018-05-19T22:45:11.723Z,27.87
2018-05-19T22:47:37.751Z,28.10
2018-05-19T22:50:04.940Z,27.50
2018-05-19T22:52:31.387Z,27.13
2018-05-19T22:54:57.464Z,27.27
2018-05-19T22:57:24.236Z,28.80
2018-05-19T22:59:50.268Z,28.10
2018-05-19T23:02:16.312Z,27.43
2018-05-19T23:04:43.124Z,28.67
2018-05-19T23:07:09.949Z,27.10
2018-05-19T23:09:36.058Z,28.40
2018-05-19T23:12:02.129Z,25.17
2018-05-19T23:14:28.963Z,27.80
2018-05-19T23:16:55.039Z,27.00
2018-05-19T23:19:21.071Z,27.57
2018-05-19T23:21:47.107Z,28.37
2018-05-19T23:24:13.896Z,25.93
2018-05-19T23:26:39.927Z,26.90
2018-05-19T23:29:06.135Z,26.07
2018-05-19T23:31:32.452Z,27.73
2018-05-19T23:33:58.652Z,26.27
2018-05-19T23:36:25.635Z,28.77
2018-05-19T23:38:51.672Z,27.00
2018-05-19T23:41:17.731Z,26.83
2018-05-19T23:43:43.968Z,27.03
2018-05-19T23:46:10.260Z,24.90
2018-05-19T23:48:36.502Z,26.30
2018-05-19T23:51:03.098Z,27.00
2018-05-19T23:53:29.401Z,25.10
2018-05-19T23:55:55.744Z,27.13
2018-05-19T23:58:21.896Z,26.70
